sensor_id;sensor_type;location;lat;lon;timestamp;temperature;humidity
1888;DHT22;944;51.574;6.980;2022-07-29T00:02:00;18.80;1.00
1888;DHT22;944;51.574;6.980;2022-07-29T00:04:27;18.80;40.20
1888;DHT22;944;51.574;6.980;2022-07-29T00:06:57;18.80;1.00
1888;DHT22;944;51.574;6.980;2022-07-29T00:09:26;18.80;1.00
1888;DHT22;944;51.574;6.980;2022-07-29T00:11:54;18.70;33.50
1888;DHT22;944;51.574;6.980;2022-07-29T00:14:33;18.70;1.00
1888;DHT22;944;51.574;6.980;2022-07-29T00:17:08;18.60;1.00
1888;DHT22;944;51.574;6.980;2022-07-29T00:19:38;18.80;1.00
1888;DHT22;944;51.574;6.980;2022-07-29T00:22:05;18.70;1.00
1888;DHT22;944;51.574;6.980;2022-07-29T00:24:32;18.60;1.00
1888;DHT22;944;51.574;6.980;2022-07-29T00:26:59;18.60;1.00
1888;DHT22;944;51.574;6.980;2022-07-29T00:29:26;18.60;1.00
1888;DHT22;944;51.574;6.980;2022-07-29T00:31:54;18.60;14.80
1888;DHT22;944;51.574;6.980;2022-07-29T00:34:23;18.40;1.00
1888;DHT22;944;51.574;6.980;2022-07-29T00:37:07;18.60;1.00
1888;DHT22;944;51.574;6.980;2022-07-29T00:39:34;18.60;1.00
1888;DHT22;944;51.574;6.980;2022-07-29T00:42:02;18.60;99.90
1888;DHT22;944;51.574;6.980;2022-07-29T00:44:30;18.60;1.00
1888;DHT22;944;51.574;6.980;2022-07-29T00:46:57;18.60;1.00
1888;DHT22;944;51.574;6.980;2022-07-29T00:49:25;18.50;99.90
1888;DHT22;944;51.574;6.980;2022-07-29T00:51:52;18.50;99.90
1888;DHT22;944;51.574;6.980;2022-07-29T00:54:19;18.50;1.00
1888;DHT22;944;51.574;6.980;2022-07-29T00:56:46;18.40;1.00
1888;DHT22;944;51.574;6.980;2022-07-29T00:59:13;18.40;1.00
1888;DHT22;944;51.574;6.980;2022-07-29T01:01:40;18.40;1.00
1888;DHT22;944;51.574;6.980;2022-07-29T01:04:07;18.30;1.00
1888;DHT22;944;51.574;6.980;2022-07-29T01:06:35;18.20;1.00
1888;DHT22;944;51.574;6.980;2022-07-29T01:09:03;18.20;1.00
1888;DHT22;944;51.574;6.980;2022-07-29T01:11:30;18.20;1.00
1888;DHT22;944;51.574;6.980;2022-07-29T01:13:57;18.20;1.00
1888;DHT22;944;51.574;6.980;2022-07-29T01:16:29;18.20;95.60
1888;DHT22;944;51.574;6.980;2022-07-29T01:19:03;18.20;1.00
1888;DHT22;944;51.574;6.980;2022-07-29T01:21:54;18.10;99.90
1888;DHT22;944;51.574;6.980;2022-07-29T01:24:39;18.10;57.20
1888;DHT22;944;51.574;6.980;2022-07-29T01:27:38;18.10;4.80
1888;DHT22;944;51.574;6.980;2022-07-29T01:30:12;18.00;60.60
1888;DHT22;944;51.574;6.980;2022-07-29T01:32:39;18.10;99.90
1888;DHT22;944;51.574;6.980;2022-07-29T01:35:12;18.10;1.00
1888;DHT22;944;51.574;6.980;2022-07-29T01:37:45;18.00;99.90
1888;DHT22;944;51.574;6.980;2022-07-29T01:40:19;18.00;99.90
1888;DHT22;944;51.574;6.980;2022-07-29T01:42:53;18.00;99.90
1888;DHT22;944;51.574;6.980;2022-07-29T01:45:27;18.00;1.00
1888;DHT22;944;51.574;6.980;2022-07-29T01:48:02;18.00;9.80
1888;DHT22;944;51.574;6.980;2022-07-29T01:50:35;18.00;1.00
1888;DHT22;944;51.574;6.980;2022-07-29T01:53:07;17.90;31.50
1888;DHT22;944;51.574;6.980;2022-07-29T01:55:39;17.90;1.00
1888;DHT22;944;51.574;6.980;2022-07-29T01:58:08;17.90;4.80
1888;DHT22;944;51.574;6.980;2022-07-29T02:00:37;17.90;1.00
1888;DHT22;944;51.574;6.980;2022-07-29T02:03:09;17.90;99.90
1888;DHT22;944;51.574;6.980;2022-07-29T02:05:39;18.00;1.00
1888;DHT22;944;51.574;6.980;2022-07-29T02:08:08;17.90;1.00
1888;DHT22;944;51.574;6.980;2022-07-29T02:10:47;17.90;1.00
1888;DHT22;944;51.574;6.980;2022-07-29T02:13:16;17.90;80.40
1888;DHT22;944;51.574;6.980;2022-07-29T02:15:49;17.90;1.00
1888;DHT22;944;51.574;6.980;2022-07-29T02:18:18;17.80;99.90
1888;DHT22;944;51.574;6.980;2022-07-29T02:20:49;17.80;99.90
1888;DHT22;944;51.574;6.980;2022-07-29T02:23:20;17.80;21.20
1888;DHT22;944;51.574;6.980;2022-07-29T02:25:49;17.70;1.00
1888;DHT22;944;51.574;6.980;2022-07-29T02:28:21;17.80;1.00
1888;DHT22;944;51.574;6.980;2022-07-29T02:30:52;17.80;1.00
1888;DHT22;944;51.574;6.980;2022-07-29T02:33:22;17.80;1.00
1888;DHT22;944;51.574;6.980;2022-07-29T02:35:51;17.90;99.90
1888;DHT22;944;51.574;6.980;2022-07-29T02:38:20;17.80;1.00
1888;DHT22;944;51.574;6.980;2022-07-29T02:41:09;17.70;1.00
1888;DHT22;944;51.574;6.980;2022-07-29T02:43:38;17.70;1.00
1888;DHT22;944;51.574;6.980;2022-07-29T02:46:13;17.70;1.00
1888;DHT22;944;51.574;6.980;2022-07-29T02:48:48;17.70;1.00
1888;DHT22;944;51.574;6.980;2022-07-29T02:51:23;17.60;88.40
1888;DHT22;944;51.574;6.980;2022-07-29T02:53:55;17.60;1.00
1888;DHT22;944;51.574;6.980;2022-07-29T02:56:28;17.60;99.90
1888;DHT22;944;51.574;6.980;2022-07-29T02:59:03;17.60;60.20
1888;DHT22;944;51.574;6.980;2022-07-29T03:01:35;17.40;99.90
1888;DHT22;944;51.574;6.980;2022-07-29T03:04:06;17.50;35.20
1888;DHT22;944;51.574;6.980;2022-07-29T03:06:35;17.50;29.90
1888;DHT22;944;51.574;6.980;2022-07-29T03:09:03;17.50;86.30
1888;DHT22;944;51.574;6.980;2022-07-29T03:11:30;17.60;99.90
1888;DHT22;944;51.574;6.980;2022-07-29T03:13:57;17.60;1.00
1888;DHT22;944;51.574;6.980;2022-07-29T03:16:25;17.50;1.00
1888;DHT22;944;51.574;6.980;2022-07-29T03:19:00;17.50;99.90
1888;DHT22;944;51.574;6.980;2022-07-29T03:21:28;17.40;38.20
1888;DHT22;944;51.574;6.980;2022-07-29T03:23:55;17.30;1.80
1888;DHT22;944;51.574;6.980;2022-07-29T03:26:24;17.20;1.00
1888;DHT22;944;51.574;6.980;2022-07-29T03:28:51;17.20;1.00
1888;DHT22;944;51.574;6.980;2022-07-29T03:31:18;17.10;99.90
1888;DHT22;944;51.574;6.980;2022-07-29T03:33:45;17.10;99.90
1888;DHT22;944;51.574;6.980;2022-07-29T03:36:29;17.10;99.90
1888;DHT22;944;51.574;6.980;2022-07-29T03:38:59;17.10;99.90
1888;DHT22;944;51.574;6.980;2022-07-29T03:41:33;17.00;99.90
1888;DHT22;944;51.574;6.980;2022-07-29T03:44:02;17.10;99.90
1888;DHT22;944;51.574;6.980;2022-07-29T03:46:31;17.10;99.90
1888;DHT22;944;51.574;6.980;2022-07-29T03:49:00;17.10;99.90
1888;DHT22;944;51.574;6.980;2022-07-29T03:51:35;17.20;99.90
1888;DHT22;944;51.574;6.980;2022-07-29T03:54:08;17.20;99.90
1888;DHT22;944;51.574;6.980;2022-07-29T03:56:38;17.20;99.90
1888;DHT22;944;51.574;6.980;2022-07-29T03:59:09;17.20;1.00
1888;DHT22;944;51.574;6.980;2022-07-29T04:01:39;17.20;1.00
1888;DHT22;944;51.574;6.980;2022-07-29T04:04:12;17.20;99.90
1888;DHT22;944;51.574;6.980;2022-07-29T04:06:42;17.20;1.00
1888;DHT22;944;51.574;6.980;2022-07-29T04:09:12;17.20;99.90
1888;DHT22;944;51.574;6.980;2022-07-29T04:11:42;17.00;99.90
1888;DHT22;944;51.574;6.980;2022-07-29T04:14:12;17.00;1.00
1888;DHT22;944;51.574;6.980;2022-07-29T04:16:39;17.00;99.90
1888;DHT22;944;51.574;6.980;2022-07-29T04:19:08;16.70;99.90
1888;DHT22;944;51.574;6.980;2022-07-29T04:21:37;16.80;99.90
1888;DHT22;944;51.574;6.980;2022-07-29T04:24:07;16.80;1.00
1888;DHT22;944;51.574;6.980;2022-07-29T04:26:35;16.80;82.10
1888;DHT22;944;51.574;6.980;2022-07-29T04:29:05;16.80;99.90
1888;DHT22;944;51.574;6.980;2022-07-29T04:31:32;16.90;1.00
1888;DHT22;944;51.574;6.980;2022-07-29T04:34:01;16.80;46.10
1888;DHT22;944;51.574;6.980;2022-07-29T04:36:28;16.80;1.00
1888;DHT22;944;51.574;6.980;2022-07-29T04:39:11;16.60;28.80
1888;DHT22;944;51.574;6.980;2022-07-29T04:41:40;16.70;99.90
1888;DHT22;944;51.574;6.980;2022-07-29T04:44:26;16.70;1.00
1888;DHT22;944;51.574;6.980;2022-07-29T04:47:00;16.60;1.00
1888;DHT22;944;51.574;6.980;2022-07-29T04:49:27;16.20;1.00
1888;DHT22;944;51.574;6.980;2022-07-29T04:51:54;15.90;1.00
1888;DHT22;944;51.574;6.980;2022-07-29T04:54:24;15.50;6.50
1888;DHT22;944;51.574;6.980;2022-07-29T04:56:54;15.20;99.90
1888;DHT22;944;51.574;6.980;2022-07-29T04:59:21;15.00;99.90
1888;DHT22;944;51.574;6.980;2022-07-29T05:09:27;14.70;1.00
1888;DHT22;944;51.574;6.980;2022-07-29T05:11:53;14.70;99.90
1888;DHT22;944;51.574;6.980;2022-07-29T05:14:20;14.90;1.00
1888;DHT22;944;51.574;6.980;2022-07-29T05:16:50;15.00;1.00
1888;DHT22;944;51.574;6.980;2022-07-29T05:19:18;15.30;99.90
1888;DHT22;944;51.574;6.980;2022-07-29T05:21:45;15.30;99.90
1888;DHT22;944;51.574;6.980;2022-07-29T05:24:12;15.50;99.90
1888;DHT22;944;51.574;6.980;2022-07-29T05:26:40;15.60;99.90
1888;DHT22;944;51.574;6.980;2022-07-29T05:29:08;15.70;99.90
1888;DHT22;944;51.574;6.980;2022-07-29T05:31:35;15.80;99.90
1888;DHT22;944;51.574;6.980;2022-07-29T05:37:25;15.80;99.90
1888;DHT22;944;51.574;6.980;2022-07-29T05:39:54;15.80;99.90
1888;DHT22;944;51.574;6.980;2022-07-29T05:42:22;15.80;99.90
1888;DHT22;944;51.574;6.980;2022-07-29T05:44:49;15.90;99.90
1888;DHT22;944;51.574;6.980;2022-07-29T05:47:16;15.90;99.90
1888;DHT22;944;51.574;6.980;2022-07-29T05:49:43;15.90;99.90
1888;DHT22;944;51.574;6.980;2022-07-29T05:52:11;15.90;99.90
1888;DHT22;944;51.574;6.980;2022-07-29T05:54:39;15.80;99.90
1888;DHT22;944;51.574;6.980;2022-07-29T06:00:40;15.90;99.90
1888;DHT22;944;51.574;6.980;2022-07-29T06:06:47;15.90;99.90
1888;DHT22;944;51.574;6.980;2022-07-29T06:09:17;15.90;99.90
1888;DHT22;944;51.574;6.980;2022-07-29T06:11:44;15.90;99.90
1888;DHT22;944;51.574;6.980;2022-07-29T06:17:53;16.00;99.90
1888;DHT22;944;51.574;6.980;2022-07-29T06:20:20;15.90;1.00
1888;DHT22;944;51.574;6.980;2022-07-29T06:26:28;15.90;99.90
1888;DHT22;944;51.574;6.980;2022-07-29T06:28:55;16.00;99.90
1888;DHT22;944;51.574;6.980;2022-07-29T06:31:22;16.00;99.90
1888;DHT22;944;51.574;6.980;2022-07-29T06:33:50;16.10;99.90
1888;DHT22;944;51.574;6.980;2022-07-29T06:36:18;16.10;99.90
1888;DHT22;944;51.574;6.980;2022-07-29T06:38:45;16.10;99.90
1888;DHT22;944;51.574;6.980;2022-07-29T06:41:12;16.20;99.90
1888;DHT22;944;51.574;6.980;2022-07-29T06:43:43;16.30;99.90
1888;DHT22;944;51.574;6.980;2022-07-29T06:46:12;16.30;99.90
1888;DHT22;944;51.574;6.980;2022-07-29T06:48:41;16.30;99.90
1888;DHT22;944;51.574;6.980;2022-07-29T06:51:10;16.30;99.90
1888;DHT22;944;51.574;6.980;2022-07-29T06:53:39;16.10;99.90
1888;DHT22;944;51.574;6.980;2022-07-29T06:56:06;16.10;99.90
1888;DHT22;944;51.574;6.980;2022-07-29T06:58:35;16.00;99.90
1888;DHT22;944;51.574;6.980;2022-07-29T07:01:04;16.10;99.90
1888;DHT22;944;51.574;6.980;2022-07-29T07:03:32;16.10;99.90
1888;DHT22;944;51.574;6.980;2022-07-29T07:05:59;16.30;99.90
1888;DHT22;944;51.574;6.980;2022-07-29T07:08:28;16.20;99.90
1888;DHT22;944;51.574;6.980;2022-07-29T07:10:58;16.30;99.90
1888;DHT22;944;51.574;6.980;2022-07-29T07:13:27;16.50;99.90
1888;DHT22;944;51.574;6.980;2022-07-29T07:16:00;16.50;99.90
1888;DHT22;944;51.574;6.980;2022-07-29T07:18:27;16.80;99.90
1888;DHT22;944;51.574;6.980;2022-07-29T07:25:08;16.70;99.90
1888;DHT22;944;51.574;6.980;2022-07-29T07:27:36;17.00;99.90
1888;DHT22;944;51.574;6.980;2022-07-29T07:30:07;17.00;99.90
1888;DHT22;944;51.574;6.980;2022-07-29T07:35:44;17.20;99.90
1888;DHT22;944;51.574;6.980;2022-07-29T09:03:55;17.30;99.90
1888;DHT22;944;51.574;6.980;2022-07-29T09:06:41;17.30;99.90
1888;DHT22;944;51.574;6.980;2022-07-29T10:24:54;18.30;1.00
1888;DHT22;944;51.574;6.980;2022-07-29T10:28:21;18.60;99.90
1888;DHT22;944;51.574;6.980;2022-07-29T10:32:04;18.70;1.00
1888;DHT22;944;51.574;6.980;2022-07-29T10:38:55;18.80;1.00
1888;DHT22;944;51.574;6.980;2022-07-29T14:54:22;22.30;8.70
1888;DHT22;944;51.574;6.980;2022-07-29T14:57:35;22.50;3.00
1888;DHT22;944;51.574;6.980;2022-07-29T15:00:06;22.60;1.00
1888;DHT22;944;51.574;6.980;2022-07-29T15:13:41;22.50;99.90
1888;DHT22;944;51.574;6.980;2022-07-29T15:16:17;22.50;99.90
1888;DHT22;944;51.574;6.980;2022-07-29T15:18:44;22.50;99.90
1888;DHT22;944;51.574;6.980;2022-07-29T15:21:28;22.50;99.90
1888;DHT22;944;51.574;6.980;2022-07-29T15:34:41;22.80;99.90
1888;DHT22;944;51.574;6.980;2022-07-29T15:37:18;22.60;99.90
1888;DHT22;944;51.574;6.980;2022-07-29T15:43:37;22.80;28.20
1888;DHT22;944;51.574;6.980;2022-07-29T15:46:16;22.70;59.60
1888;DHT22;944;51.574;6.980;2022-07-29T15:49:09;22.80;20.80
1888;DHT22;944;51.574;6.980;2022-07-29T15:52:05;22.70;99.90
1888;DHT22;944;51.574;6.980;2022-07-29T15:55:14;22.60;99.90
